createdAt,value
2017-05-12T00:01:37.722Z,20.60
2017-05-12T00:04:06.077Z,22.35
2017-05-12T00:06:34.513Z,21.05
2017-05-12T00:09:02.943Z,22.93
2017-05-12T00:11:31.345Z,24.33
2017-05-12T00:14:00.111Z,22.60
2017-05-12T00:16:28.459Z,22.48
2017-05-12T00:18:57.655Z,23.03
2017-05-12T00:21:26.917Z,22.40
2017-05-12T00:23:55.278Z,24.23
2017-05-12T00:26:23.610Z,25.95
2017-05-12T00:28:51.965Z,25.00
2017-05-12T00:31:21.098Z,24.32
2017-05-12T00:33:50.872Z,24.48
2017-05-12T00:36:19.298Z,24.00
2017-05-12T00:38:48.972Z,26.10
2017-05-12T00:41:18.237Z,25.17
2017-05-12T00:43:46.697Z,23.83
2017-05-12T00:46:16.857Z,25.02
2017-05-12T00:48:47.063Z,25.83
2017-05-12T00:51:15.391Z,26.60
2017-05-12T00:53:49.288Z,25.05
2017-05-12T00:56:19.454Z,24.27
2017-05-12T00:58:48.998Z,23.62
2017-05-12T01:01:18.145Z,27.30
2017-05-12T01:03:46.641Z,24.07
2017-05-12T01:06:16.570Z,23.45
2017-05-12T01:08:45.579Z,25.97
2017-05-12T01:11:14.752Z,25.72
2017-05-12T01:13:43.151Z,26.65
2017-05-12T01:16:11.463Z,26.83
2017-05-12T01:18:41.339Z,25.55
2017-05-12T01:21:09.672Z,26.02
2017-05-12T01:23:37.989Z,25.75
2017-05-12T01:26:06.340Z,27.80
2017-05-12T01:28:35.647Z,27.73
2017-05-12T01:31:03.988Z,28.05
2017-05-12T01:33:32.321Z,28.57
2017-05-12T01:36:00.652Z,26.35
2017-05-12T01:38:29.059Z,28.00
2017-05-12T01:40:57.429Z,26.33
2017-05-12T01:43:25.945Z,28.88
2017-05-12T01:45:54.366Z,28.43
2017-05-12T01:48:22.686Z,26.85
2017-05-12T01:50:51.062Z,28.72
2017-05-12T01:53:19.958Z,28.02
2017-05-12T01:55:48.304Z,27.87
2017-05-12T01:58:16.792Z,25.57
2017-05-12T02:00:45.131Z,25.92
2017-05-12T02:03:14.956Z,27.87
2017-05-12T02:05:43.451Z,27.17
2017-05-12T02:08:11.781Z,29.32
2017-05-12T02:10:40.143Z,25.12
2017-05-12T02:13:08.508Z,30.87
2017-05-12T02:15:36.816Z,29.90
2017-05-12T02:18:05.208Z,29.72
2017-05-12T02:20:33.569Z,30.70
2017-05-12T02:23:01.895Z,29.83
2017-05-12T02:25:30.614Z,28.63
2017-05-12T02:27:59.865Z,29.18
2017-05-12T02:30:28.947Z,29.52
2017-05-12T02:32:57.362Z,28.00
2017-05-12T02:35:25.689Z,30.33
2017-05-12T02:37:54.779Z,30.80
2017-05-12T02:40:23.961Z,30.17
2017-05-12T02:42:52.326Z,31.55
2017-05-12T02:45:20.690Z,32.90
2017-05-12T02:47:49.056Z,31.32
2017-05-12T02:50:18.173Z,33.05
2017-05-12T02:52:46.571Z,31.68
2017-05-12T02:55:14.983Z,31.98
2017-05-12T02:57:43.312Z,28.93
2017-05-12T03:00:11.713Z,32.17
2017-05-12T03:02:40.052Z,31.25
2017-05-12T03:05:08.439Z,33.25
2017-05-12T03:07:36.927Z,33.57
2017-05-12T03:10:05.251Z,34.40
2017-05-12T03:12:33.570Z,34.90
2017-05-12T03:15:01.942Z,31.38
2017-05-12T03:17:30.278Z,38.52
2017-05-12T03:19:58.610Z,32.58
2017-05-12T03:22:26.971Z,33.63
2017-05-12T03:24:55.331Z,34.38
2017-05-12T03:27:24.416Z,33.37
2017-05-12T03:29:53.649Z,32.68
2017-05-12T03:32:22.029Z,32.40
2017-05-12T03:34:50.345Z,31.67
2017-05-12T03:37:18.688Z,32.80
2017-05-12T03:39:47.053Z,36.83
2017-05-12T03:42:15.369Z,34.02
2017-05-12T03:44:43.701Z,35.82
2017-05-12T03:47:12.037Z,33.68
2017-05-12T03:49:40.393Z,39.53
2017-05-12T03:52:08.759Z,36.78
2017-05-12T03:54:37.136Z,35.32
2017-05-12T03:57:05.449Z,37.73
2017-05-12T03:59:34.573Z,38.17
2017-05-12T04:02:04.870Z,37.03
2017-05-12T04:04:34.365Z,39.35
2017-05-12T04:07:02.933Z,37.42
2017-05-12T04:09:31.265Z,36.02
2017-05-12T04:11:59.643Z,35.80
2017-05-12T04:14:28.705Z,39.45
2017-05-12T04:16:57.037Z,35.77
2017-05-12T04:19:25.450Z,39.82
2017-05-12T04:21:53.743Z,36.13
2017-05-12T04:24:22.073Z,35.73
2017-05-12T04:26:50.522Z,35.30
2017-05-12T04:29:19.636Z,38.78
2017-05-12T04:31:47.994Z,39.02
2017-05-12T04:34:17.844Z,40.12
2017-05-12T04:36:46.140Z,40.12
2017-05-12T04:39:15.265Z,37.15
2017-05-12T04:41:43.669Z,35.92
2017-05-12T04:44:12.775Z,38.28
2017-05-12T04:46:44.371Z,36.70
2017-05-12T04:49:12.693Z,38.12
2017-05-12T04:51:41.202Z,41.77
2017-05-12T04:54:09.597Z,35.72
2017-05-12T04:56:37.944Z,36.50
2017-05-12T04:59:06.371Z,36.90
2017-05-12T05:01:34.692Z,35.60
2017-05-12T05:04:04.033Z,37.68
2017-05-12T05:06:32.453Z,35.28
2017-05-12T05:09:02.229Z,36.20
2017-05-12T05:11:33.479Z,38.45
2017-05-12T05:14:02.127Z,38.57
2017-05-12T05:16:30.500Z,40.20
2017-05-12T05:18:58.869Z,39.80
2017-05-12T05:21:28.029Z,35.97
2017-05-12T05:23:56.359Z,34.85
2017-05-12T05:26:24.745Z,37.58
2017-05-12T05:28:55.156Z,43.97
2017-05-12T05:31:23.482Z,45.35
2017-05-12T05:33:51.876Z,37.50
2017-05-12T05:36:20.214Z,36.73
2017-05-12T05:38:50.039Z,49.05
2017-05-12T05:41:18.397Z,44.82
2017-05-12T05:43:46.774Z,38.75
2017-05-12T05:46:15.725Z,36.40
2017-05-12T05:54:33.500Z,36.55
2017-05-12T05:57:02.100Z,46.02
2017-05-12T05:59:30.564Z,43.22
2017-05-12T06:01:59.736Z,37.50
2017-05-12T06:04:28.243Z,35.18
2017-05-12T06:06:57.503Z,38.32
2017-05-12T06:09:26.045Z,43.27
2017-05-12T06:11:54.436Z,39.85
2017-05-12T06:14:22.792Z,35.28
2017-05-12T06:16:52.225Z,115.17
2017-05-12T06:19:20.717Z,49.85
2017-05-12T06:21:49.876Z,72.52
2017-05-12T06:24:23.211Z,75.40
2017-05-12T06:26:51.713Z,169.28
2017-05-12T06:29:20.152Z,57.22
2017-05-12T06:31:48.620Z,50.85
2017-05-12T06:34:17.148Z,42.18
2017-05-12T06:36:45.640Z,38.03
2017-05-12T06:41:50.619Z,38.43
2017-05-12T06:44:23.837Z,35.18
2017-05-12T06:46:52.509Z,39.80
2017-05-12T06:49:20.965Z,39.57
2017-05-12T06:51:50.165Z,36.52
2017-05-12T06:54:20.081Z,41.87
2017-05-12T06:56:49.780Z,35.28
2017-05-12T06:59:29.092Z,32.37
2017-05-12T07:01:57.560Z,41.77
2017-05-12T07:04:28.208Z,36.77
2017-05-12T07:06:57.057Z,33.70
2017-05-12T07:09:25.440Z,35.52
2017-05-12T07:11:54.882Z,35.98
2017-05-12T07:14:23.563Z,36.48
2017-05-12T07:16:52.399Z,36.63
2017-05-12T07:19:20.757Z,33.03
2017-05-12T07:21:52.086Z,32.78
2017-05-12T07:24:20.486Z,34.00
2017-05-12T07:26:49.602Z,32.05
2017-05-12T07:29:21.948Z,34.98
2017-05-12T07:31:50.299Z,36.10
2017-05-12T07:34:18.973Z,33.63
2017-05-12T07:36:47.380Z,31.55
2017-05-12T07:39:16.510Z,31.70
2017-05-12T07:41:45.571Z,36.23
2017-05-12T07:44:14.991Z,31.78
2017-05-12T07:46:44.269Z,32.60
2017-05-12T07:49:14.052Z,32.73
2017-05-12T07:51:42.439Z,32.18
2017-05-12T07:54:10.852Z,35.32
2017-05-12T07:56:39.254Z,33.78
2017-05-12T07:59:07.745Z,30.88
2017-05-12T08:01:37.095Z,30.05
2017-05-12T08:04:06.106Z,31.63
2017-05-12T08:06:35.442Z,30.27
2017-05-12T08:09:03.989Z,31.65
2017-05-12T08:11:32.357Z,30.63
2017-05-12T08:14:01.683Z,30.93
2017-05-12T08:16:30.008Z,30.37
2017-05-12T08:18:58.352Z,29.13
2017-05-12T08:21:26.703Z,31.37
2017-05-12T08:23:55.207Z,32.25
2017-05-12T08:26:23.585Z,33.85
2017-05-12T08:28:53.689Z,30.48
2017-05-12T08:31:22.028Z,30.90
2017-05-12T08:33:50.343Z,30.03
2017-05-12T08:36:19.541Z,28.95
2017-05-12T08:38:48.688Z,27.70
2017-05-12T08:41:17.389Z,27.92
2017-05-12T08:43:46.734Z,28.27
2017-05-12T08:46:15.209Z,29.05
2017-05-12T08:48:46.150Z,30.50
2017-05-12T08:51:38.446Z,33.27
2017-05-12T08:54:07.790Z,26.52
2017-05-12T08:59:14.918Z,27.57
2017-05-12T09:01:46.037Z,30.67
2017-05-12T09:04:14.527Z,25.62
2017-05-12T09:06:43.867Z,26.45
2017-05-12T09:09:12.287Z,25.80
2017-05-12T09:11:40.630Z,26.43
2017-05-12T09:14:09.252Z,32.22
2017-05-12T09:16:38.421Z,26.20
2017-05-12T09:19:06.794Z,26.92
2017-05-12T09:21:36.164Z,24.68
2017-05-12T09:24:04.684Z,26.00
2017-05-12T09:26:33.992Z,24.32
2017-05-12T09:29:02.309Z,26.23
2017-05-12T09:31:30.974Z,27.15
2017-05-12T09:34:00.054Z,23.83
2017-05-12T09:36:29.229Z,24.28
2017-05-12T09:38:57.616Z,25.53
2017-05-12T09:41:26.034Z,21.92
2017-05-12T09:43:54.505Z,22.75
2017-05-12T09:46:23.597Z,23.00
2017-05-12T09:48:53.191Z,23.85
2017-05-12T09:51:21.570Z,21.80
2017-05-12T09:53:50.890Z,21.67
2017-05-12T09:56:20.105Z,20.03
2017-05-12T09:58:48.543Z,19.38
2017-05-12T10:01:16.965Z,20.10
2017-05-12T10:03:45.342Z,21.68
2017-05-12T10:06:14.485Z,26.70
2017-05-12T10:08:42.837Z,21.48
2017-05-12T10:14:11.961Z,17.13
2017-05-12T10:16:41.506Z,16.92
2017-05-12T10:19:09.874Z,16.78
2017-05-12T10:21:38.233Z,17.85
2017-05-12T10:24:07.042Z,17.12
2017-05-12T10:26:36.062Z,15.83
2017-05-12T10:29:05.203Z,16.65
2017-05-12T10:31:54.313Z,14.50
2017-05-12T10:36:55.801Z,12.18
2017-05-12T10:39:25.061Z,12.60
2017-05-12T10:41:53.411Z,12.17
2017-05-12T10:44:22.003Z,12.43
2017-05-12T10:46:52.467Z,12.43
2017-05-12T10:49:22.807Z,11.32
2017-05-12T10:51:51.902Z,10.96
2017-05-12T10:54:20.530Z,9.92
2017-05-12T10:56:48.875Z,10.14
2017-05-12T10:59:17.932Z,8.30
2017-05-12T11:01:48.806Z,14.92
2017-05-12T11:04:17.403Z,9.30
2017-05-12T11:06:45.848Z,23.92
2017-05-12T11:09:14.982Z,11.24
2017-05-12T11:11:43.402Z,11.66
2017-05-12T11:14:12.980Z,12.78
2017-05-12T11:16:41.594Z,10.90
2017-05-12T11:19:10.805Z,7.92
2017-05-12T11:21:40.501Z,10.98
2017-05-12T11:24:09.711Z,16.40
2017-05-12T11:26:38.792Z,8.74
2017-05-12T11:29:07.182Z,7.86
2017-05-12T11:31:36.279Z,15.08
2017-05-12T11:34:09.443Z,6.98
2017-05-12T11:36:37.795Z,9.80
2017-05-12T11:39:06.263Z,7.66
2017-05-12T11:41:36.537Z,7.86
2017-05-12T11:44:09.452Z,8.30
2017-05-12T11:46:37.978Z,9.78
2017-05-12T11:49:09.105Z,11.26
2017-05-12T11:51:40.494Z,17.04
2017-05-12T11:54:08.999Z,8.44
2017-05-12T11:56:39.521Z,11.70
2017-05-12T11:59:09.638Z,11.30
2017-05-12T12:01:38.586Z,19.66
2017-05-12T12:04:08.114Z,10.72
2017-05-12T12:06:36.660Z,15.58
2017-05-12T12:09:10.197Z,12.32
2017-05-12T12:11:38.738Z,7.36
2017-05-12T12:14:08.142Z,7.90
2017-05-12T12:16:39.612Z,9.06
2017-05-12T12:19:08.254Z,8.88
2017-05-12T12:21:36.673Z,7.44
2017-05-12T12:24:05.607Z,8.20
2017-05-12T12:26:36.878Z,8.16
2017-05-12T12:29:05.222Z,7.82
2017-05-12T12:31:34.419Z,6.82
2017-05-12T12:34:02.870Z,7.44
2017-05-12T12:36:31.228Z,7.46
2017-05-12T12:39:04.617Z,8.06
2017-05-12T12:41:33.800Z,9.24
2017-05-12T12:44:03.155Z,8.84
2017-05-12T12:46:31.553Z,8.72
2017-05-12T12:49:01.693Z,7.96
2017-05-12T12:51:33.788Z,9.60
2017-05-12T12:54:05.022Z,8.36
2017-05-12T12:56:34.732Z,9.82
2017-05-12T12:59:03.533Z,9.06
2017-05-12T13:01:34.847Z,9.64
2017-05-12T13:04:03.235Z,12.20
2017-05-12T13:06:33.815Z,8.54
2017-05-12T13:09:02.293Z,12.20
2017-05-12T13:11:31.076Z,10.64
2017-05-12T13:13:59.454Z,9.34
2017-05-12T13:16:28.102Z,9.98
2017-05-12T13:19:03.903Z,12.34
2017-05-12T13:21:33.965Z,10.68
2017-05-12T13:26:40.917Z,10.92
2017-05-12T13:29:11.441Z,12.02
2017-05-12T13:31:39.899Z,10.56
2017-05-12T13:34:08.464Z,9.92
2017-05-12T13:36:38.832Z,10.22
2017-05-12T13:39:07.220Z,12.42
2017-05-12T13:41:35.590Z,10.83
2017-05-12T13:44:04.791Z,10.80
2017-05-12T13:46:33.305Z,11.00
2017-05-12T13:49:04.772Z,11.92
2017-05-12T13:51:34.276Z,12.08
2017-05-12T13:54:02.656Z,11.73
2017-05-12T13:56:33.513Z,10.20
2017-05-12T13:59:03.369Z,10.20
2017-05-12T14:01:31.798Z,10.15
2017-05-12T14:04:00.902Z,12.00
2017-05-12T14:06:30.053Z,9.77
2017-05-12T14:08:59.441Z,9.43
2017-05-12T14:11:29.889Z,10.65
2017-05-12T14:13:58.477Z,9.40
2017-05-12T14:16:27.669Z,11.28
2017-05-12T14:18:56.867Z,8.20
2017-05-12T14:21:25.379Z,8.82
2017-05-12T14:23:55.830Z,9.32
2017-05-12T14:26:24.966Z,9.25
2017-05-12T14:28:55.287Z,8.68
2017-05-12T14:31:23.929Z,9.23
2017-05-12T14:33:53.370Z,8.57
2017-05-12T14:36:22.909Z,8.70
2017-05-12T14:38:53.032Z,8.02
2017-05-12T14:41:21.402Z,8.53
2017-05-12T14:43:50.719Z,10.25
2017-05-12T14:46:20.184Z,7.95
2017-05-12T14:48:48.693Z,7.23
2017-05-12T14:51:19.142Z,7.70
2017-05-12T14:53:48.222Z,7.40
2017-05-12T14:56:20.235Z,8.20
2017-05-12T14:58:52.359Z,8.12
2017-05-12T15:01:21.660Z,7.78
2017-05-12T15:03:51.771Z,7.85
2017-05-12T15:06:20.206Z,7.97
2017-05-12T15:08:48.672Z,8.37
2017-05-12T15:11:17.113Z,8.10
2017-05-12T15:13:51.923Z,6.98
2017-05-12T15:16:20.312Z,6.57
2017-05-12T15:21:26.276Z,6.77
2017-05-12T15:23:55.475Z,9.42
2017-05-12T15:26:24.741Z,6.98
2017-05-12T15:28:53.073Z,8.27
2017-05-12T15:31:22.145Z,8.72
2017-05-12T15:33:50.552Z,8.43
2017-05-12T15:36:18.900Z,7.87
2017-05-12T15:38:47.356Z,7.43
2017-05-12T15:41:15.810Z,9.54
2017-05-12T15:43:44.265Z,11.50
2017-05-12T15:46:12.700Z,8.76
2017-05-12T15:48:41.168Z,7.56
2017-05-12T15:51:09.485Z,7.92
2017-05-12T15:53:39.128Z,8.28
2017-05-12T15:56:07.485Z,7.22
2017-05-12T15:58:36.596Z,12.84
2017-05-12T16:01:05.497Z,7.93
2017-05-12T16:03:34.684Z,8.28
2017-05-12T16:06:04.189Z,7.63
2017-05-12T16:08:32.636Z,9.43
2017-05-12T16:11:01.044Z,9.62
2017-05-12T16:13:29.447Z,9.00
2017-05-12T16:15:58.401Z,9.28
2017-05-12T16:18:26.930Z,9.17
2017-05-12T16:20:55.309Z,8.57
2017-05-12T16:23:26.191Z,7.88
2017-05-12T16:25:56.554Z,10.68
2017-05-12T16:28:24.994Z,8.80
2017-05-12T16:30:54.821Z,9.38
2017-05-12T16:33:23.185Z,9.90
2017-05-12T16:35:54.255Z,8.87
2017-05-12T16:38:23.491Z,10.12
2017-05-12T16:40:51.927Z,8.90
2017-05-12T16:43:20.341Z,13.30
2017-05-12T16:45:48.815Z,8.60
2017-05-12T16:48:17.136Z,10.47
2017-05-12T16:50:45.521Z,13.75
2017-05-12T16:53:13.985Z,10.27
2017-05-12T16:55:43.105Z,12.23
